Athens, Alabama
Current Conditions -  °F | °C
As of 7:53 AM on Wednesday 22 Oct 2014 (Local Time) from KDCU Reporting Station
Clear Clear  
Wind Chill: 47°   Ceiling: Unl
Heat Index: 47°   Visibility: NA
Dew Point: 42°   Wind: 3mph
Humidity: 83%   Direction: 10°N
Pressure: 30.19"   Gusts: NA
Location:  34.8°N, 86.97°W
Report Text: KDCU 221253Z AUTO 01003KT CLR 08/06 A3019 RMK AO2 SLP223 T00830056
Loading
Personal Weather Stations






























Interactive Weather Map New forecast layout! Learn more

10-Day Weather Forecast

Advertisements
Track Severe Weather on mobile